createdAt,value
2019-02-09T00:02:36.952Z,11.63
2019-02-09T00:06:41.376Z,8.77
2019-02-09T00:10:44.823Z,10.40
2019-02-09T00:14:48.268Z,7.27
2019-02-09T00:18:51.717Z,6.23
2019-02-09T00:22:55.167Z,5.97
2019-02-09T00:26:58.621Z,8.63
2019-02-09T00:31:02.086Z,4.77
2019-02-09T00:35:05.529Z,6.17
2019-02-09T00:39:08.984Z,6.37
2019-02-09T00:43:12.431Z,4.77
2019-02-09T00:47:15.881Z,6.60
2019-02-09T00:51:19.335Z,7.40
2019-02-09T00:55:22.765Z,3.63
2019-02-09T00:59:26.214Z,6.57
2019-02-09T01:03:29.662Z,5.27
2019-02-09T01:07:33.113Z,3.20
2019-02-09T01:11:36.556Z,4.10
2019-02-09T01:15:40.007Z,3.87
2019-02-09T01:19:43.488Z,5.13
2019-02-09T01:23:46.937Z,4.53
2019-02-09T01:27:50.397Z,10.57
2019-02-09T01:31:53.844Z,6.33
2019-02-09T01:35:57.297Z,10.83
2019-02-09T01:40:00.751Z,5.50
2019-02-09T01:44:04.217Z,6.83
2019-02-09T01:48:07.671Z,7.53
2019-02-09T01:52:11.108Z,8.20
2019-02-09T01:56:14.584Z,7.37
2019-02-09T02:00:18.035Z,4.93
2019-02-09T02:04:21.488Z,7.90
2019-02-09T02:08:24.933Z,5.77
2019-02-09T02:12:28.384Z,6.10
2019-02-09T02:16:31.832Z,6.13
2019-02-09T02:20:35.279Z,9.33
2019-02-09T02:24:38.733Z,15.17
2019-02-09T02:28:42.190Z,5.37
2019-02-09T02:32:45.639Z,8.80
2019-02-09T02:36:49.097Z,7.37
2019-02-09T02:40:52.595Z,5.53
2019-02-09T02:44:56.002Z,6.63
2019-02-09T02:48:59.459Z,10.50
2019-02-09T02:53:02.905Z,7.03
2019-02-09T02:57:06.365Z,7.50
2019-02-09T03:01:09.820Z,8.43
2019-02-09T03:05:13.262Z,6.30
2019-02-09T03:09:16.715Z,6.27
2019-02-09T03:13:20.155Z,7.07
2019-02-09T03:17:23.605Z,8.43
2019-02-09T03:21:27.058Z,7.90
2019-02-09T03:25:30.521Z,8.83
2019-02-09T03:29:33.954Z,6.67
2019-02-09T03:33:37.415Z,4.07
2019-02-09T03:37:40.857Z,4.00
2019-02-09T03:41:44.305Z,3.33
2019-02-09T03:45:47.759Z,3.83
2019-02-09T03:49:51.195Z,5.03
2019-02-09T03:53:54.654Z,5.83
2019-02-09T03:57:58.113Z,5.47
2019-02-09T04:02:02.631Z,5.17
2019-02-09T04:06:06.082Z,2.83
2019-02-09T04:10:09.525Z,4.07
2019-02-09T04:14:12.974Z,4.23
2019-02-09T04:18:16.431Z,6.80
2019-02-09T04:22:19.880Z,5.90
2019-02-09T04:26:23.339Z,4.00
2019-02-09T04:30:26.776Z,4.63
2019-02-09T04:34:30.230Z,3.00
2019-02-09T04:38:33.687Z,1.53
2019-02-09T04:42:37.143Z,2.33
2019-02-09T04:46:40.598Z,2.40
2019-02-09T04:50:44.033Z,1.63
2019-02-09T04:54:47.484Z,1.50
2019-02-09T04:58:50.934Z,2.70
2019-02-09T05:02:54.387Z,1.47
2019-02-09T05:06:57.833Z,2.23
2019-02-09T05:11:01.284Z,0.70
2019-02-09T05:15:04.746Z,0.93
2019-02-09T05:19:08.196Z,1.07
2019-02-09T05:23:11.654Z,1.17
2019-02-09T05:27:15.092Z,1.37
2019-02-09T05:31:23.098Z,2.07
2019-02-09T05:35:23.700Z,1.17
2019-02-09T05:39:27.153Z,1.43
2019-02-09T05:43:30.609Z,3.50
2019-02-09T05:47:34.051Z,4.40
2019-02-09T05:51:37.518Z,2.87
2019-02-09T05:55:40.962Z,1.10
2019-02-09T05:59:44.410Z,3.43
2019-02-09T06:03:47.863Z,3.27
2019-02-09T06:07:51.310Z,3.40
2019-02-09T06:11:54.758Z,8.83
2019-02-09T06:15:58.219Z,5.40
2019-02-09T06:20:01.666Z,3.57
2019-02-09T06:24:05.118Z,6.10
2019-02-09T06:28:08.559Z,11.13
2019-02-09T06:32:12.010Z,4.00
2019-02-09T06:36:15.482Z,2.70
2019-02-09T06:40:18.922Z,2.40
2019-02-09T06:44:22.373Z,3.33
2019-02-09T06:48:25.818Z,2.57
2019-02-09T06:52:29.268Z,3.93
2019-02-09T06:56:32.727Z,2.67
2019-02-09T07:00:36.186Z,4.27
2019-02-09T07:04:39.638Z,2.97
2019-02-09T07:08:43.084Z,5.43
2019-02-09T07:12:46.565Z,5.27
2019-02-09T07:16:50.014Z,7.27
2019-02-09T07:20:53.463Z,4.00
2019-02-09T07:24:56.923Z,5.47
2019-02-09T07:29:00.366Z,2.57
2019-02-09T07:33:03.821Z,3.23
2019-02-09T07:37:08.307Z,2.63
2019-02-09T07:41:11.761Z,5.00
2019-02-09T07:45:15.213Z,5.23
2019-02-09T07:49:18.647Z,3.63
2019-02-09T07:53:22.106Z,5.87
2019-02-09T07:57:25.558Z,4.00
2019-02-09T08:01:29.023Z,6.23
2019-02-09T08:05:32.473Z,3.37
2019-02-09T08:09:35.912Z,3.83
2019-02-09T08:13:39.371Z,4.63
2019-02-09T08:17:42.809Z,7.13
2019-02-09T08:21:46.269Z,4.80
2019-02-09T08:25:49.720Z,5.10
2019-02-09T08:29:53.158Z,4.03
2019-02-09T08:33:56.613Z,8.17
2019-02-09T08:38:00.060Z,5.93
2019-02-09T08:42:03.521Z,6.70
2019-02-09T08:46:06.971Z,7.50
2019-02-09T08:50:10.423Z,6.60
2019-02-09T08:54:13.875Z,4.93
2019-02-09T08:58:17.326Z,6.03
2019-02-09T09:02:20.975Z,6.43
2019-02-09T09:06:24.399Z,8.93
2019-02-09T09:10:27.854Z,4.20
2019-02-09T09:14:31.312Z,6.57
2019-02-09T09:18:34.765Z,7.23
2019-02-09T09:22:38.217Z,9.30
2019-02-09T09:26:41.667Z,5.07
2019-02-09T09:30:45.124Z,9.23
2019-02-09T09:34:48.573Z,4.20
2019-02-09T09:38:52.027Z,6.87
2019-02-09T09:42:55.482Z,7.93
2019-02-09T09:46:59.995Z,7.17
2019-02-09T09:51:03.448Z,5.60
2019-02-09T09:55:06.910Z,6.20
2019-02-09T09:59:10.355Z,9.53
2019-02-09T10:03:13.808Z,8.90
2019-02-09T10:07:17.263Z,7.03
2019-02-09T10:11:20.704Z,8.93
2019-02-09T10:15:24.160Z,9.93
2019-02-09T10:19:27.619Z,9.60
2019-02-09T10:23:31.075Z,7.23
2019-02-09T10:27:34.525Z,5.17
2019-02-09T10:31:37.994Z,7.27
2019-02-09T10:35:41.444Z,6.90
2019-02-09T10:39:44.906Z,5.93
2019-02-09T10:43:48.357Z,4.67
2019-02-09T10:47:51.807Z,5.70
2019-02-09T10:51:55.271Z,10.10
2019-02-09T10:55:58.742Z,7.47
2019-02-09T11:00:02.195Z,7.30
2019-02-09T11:04:05.640Z,6.93
2019-02-09T11:08:09.114Z,12.57
2019-02-09T11:12:12.595Z,10.97
2019-02-09T11:16:16.046Z,6.73
2019-02-09T11:20:19.524Z,6.17
2019-02-09T11:24:23.954Z,8.47
2019-02-09T11:28:27.427Z,9.20
2019-02-09T11:32:30.888Z,10.60
2019-02-09T11:36:34.374Z,14.67
2019-02-09T11:40:37.838Z,13.03
2019-02-09T11:44:41.447Z,11.50
2019-02-09T11:48:44.831Z,7.43
2019-02-09T11:52:48.290Z,8.77
2019-02-09T11:56:51.756Z,9.27
2019-02-09T12:00:55.211Z,11.13
2019-02-09T12:04:58.669Z,6.97
2019-02-09T12:09:02.131Z,5.97
2019-02-09T12:13:06.762Z,9.83
2019-02-09T12:17:10.231Z,9.63
2019-02-09T12:21:13.714Z,8.47
2019-02-09T12:25:17.166Z,25.47
2019-02-09T12:29:20.649Z,17.77
2019-02-09T12:33:24.129Z,9.97
2019-02-09T12:37:27.582Z,14.07
2019-02-09T12:41:31.071Z,8.03
2019-02-09T12:45:34.519Z,9.93
2019-02-09T12:49:37.984Z,6.80
2019-02-09T12:53:41.445Z,5.80
2019-02-09T12:57:44.906Z,8.00
2019-02-09T13:01:48.346Z,14.63
2019-02-09T13:05:51.823Z,12.47
2019-02-09T13:09:55.306Z,10.37
2019-02-09T13:13:58.766Z,7.10
2019-02-09T13:18:02.229Z,7.67
2019-02-09T13:22:05.685Z,12.70
2019-02-09T13:26:09.139Z,9.10
2019-02-09T13:30:12.603Z,6.47
2019-02-09T13:34:16.067Z,8.47
2019-02-09T13:38:19.536Z,7.53
2019-02-09T13:42:22.981Z,8.57
2019-02-09T13:46:26.446Z,10.97
2019-02-09T13:50:29.913Z,9.30
2019-02-09T13:54:33.381Z,13.80
2019-02-09T13:58:36.844Z,6.73
2019-02-09T14:02:40.288Z,9.90
2019-02-09T14:06:43.761Z,9.47
2019-02-09T14:10:47.209Z,14.57
2019-02-09T14:14:50.676Z,12.73
2019-02-09T14:18:54.139Z,7.90
2019-02-09T14:22:57.588Z,8.30
2019-02-09T14:27:01.050Z,8.73
2019-02-09T14:31:04.507Z,12.53
2019-02-09T14:35:07.969Z,7.97
2019-02-09T14:39:11.431Z,8.47
2019-02-09T14:43:14.880Z,6.80
2019-02-09T14:47:18.346Z,11.03
2019-02-09T14:51:21.814Z,8.10
2019-02-09T14:55:25.278Z,15.07
2019-02-09T14:59:28.748Z,11.17
2019-02-09T15:03:32.308Z,8.67
2019-02-09T15:07:35.740Z,12.90
2019-02-09T15:11:39.207Z,9.87
2019-02-09T15:15:42.671Z,9.17
2019-02-09T15:19:46.128Z,7.93
2019-02-09T15:23:49.581Z,8.63
2019-02-09T15:27:53.042Z,10.20
2019-02-09T15:31:56.513Z,9.33
2019-02-09T15:35:59.968Z,7.93
2019-02-09T15:40:03.425Z,9.43
2019-02-09T15:44:06.866Z,12.40
2019-02-09T15:48:10.337Z,10.20
2019-02-09T15:52:13.789Z,9.97
2019-02-09T15:56:17.242Z,7.47
2019-02-09T16:00:20.693Z,8.77
2019-02-09T16:04:24.138Z,11.77
2019-02-09T16:08:27.597Z,5.77
2019-02-09T16:12:31.050Z,9.27
2019-02-09T16:16:35.580Z,7.37
2019-02-09T16:20:39.033Z,11.10
2019-02-09T16:24:42.480Z,10.40
2019-02-09T16:28:45.950Z,12.77
2019-02-09T16:32:49.405Z,9.03
2019-02-09T16:36:52.862Z,9.43
2019-02-09T16:40:56.306Z,5.37
2019-02-09T16:44:59.761Z,10.83
2019-02-09T16:49:03.231Z,12.00
2019-02-09T16:53:06.688Z,7.00
2019-02-09T16:57:10.145Z,5.50
2019-02-09T17:01:13.591Z,18.33
2019-02-09T17:05:17.051Z,12.07
2019-02-09T17:09:20.512Z,12.63
2019-02-09T17:13:23.982Z,9.07
2019-02-09T17:17:27.437Z,8.97
2019-02-09T17:21:30.883Z,7.97
2019-02-09T17:25:34.340Z,11.97
2019-02-09T17:29:39.285Z,13.10
2019-02-09T17:33:42.848Z,13.63
2019-02-09T17:37:46.308Z,12.77
2019-02-09T17:41:49.757Z,8.17
2019-02-09T17:45:53.207Z,10.40
2019-02-09T17:49:56.670Z,12.07
2019-02-09T17:54:00.124Z,7.23
2019-02-09T17:58:03.579Z,13.20
2019-02-09T18:02:07.025Z,11.17
2019-02-09T18:06:10.488Z,10.77
2019-02-09T18:10:13.941Z,9.60
2019-02-09T18:14:17.393Z,6.93
2019-02-09T18:18:20.843Z,8.00
2019-02-09T18:22:24.291Z,10.80
2019-02-09T18:26:27.748Z,15.93
2019-02-09T18:30:31.199Z,9.70
2019-02-09T18:34:34.650Z,12.20
2019-02-09T18:38:38.123Z,11.13
2019-02-09T18:42:41.577Z,11.40
2019-02-09T18:46:45.030Z,8.50
2019-02-09T18:50:48.484Z,14.87
2019-02-09T18:54:51.940Z,6.50
2019-02-09T18:58:55.394Z,15.93
2019-02-09T19:02:58.841Z,15.53
2019-02-09T19:07:03.377Z,12.07
2019-02-09T19:11:06.858Z,12.63
2019-02-09T19:15:10.326Z,12.10
2019-02-09T19:19:13.779Z,16.00
2019-02-09T19:23:17.239Z,14.43
2019-02-09T19:27:20.698Z,13.30
2019-02-09T19:31:24.172Z,11.30
2019-02-09T19:35:27.634Z,11.00
2019-02-09T19:39:31.084Z,17.90
2019-02-09T19:43:34.545Z,12.23
2019-02-09T19:47:38.008Z,11.97
2019-02-09T19:51:41.463Z,14.03
2019-02-09T19:55:44.926Z,12.17
2019-02-09T19:59:48.462Z,16.80
2019-02-09T20:03:51.877Z,8.57
2019-02-09T20:07:55.606Z,14.17
2019-02-09T20:11:59.180Z,13.90
2019-02-09T20:16:02.643Z,15.23
2019-02-09T20:20:06.088Z,9.70
2019-02-09T20:24:09.540Z,9.13
2019-02-09T20:28:12.996Z,9.43
2019-02-09T20:32:16.452Z,12.60
2019-02-09T20:36:19.915Z,14.07
2019-02-09T20:40:23.363Z,14.57
2019-02-09T20:44:26.823Z,9.63
2019-02-09T20:48:30.271Z,16.17
2019-02-09T20:52:33.728Z,12.70
2019-02-09T20:56:38.012Z,10.23
2019-02-09T21:00:41.467Z,10.00
2019-02-09T21:04:44.918Z,12.87
2019-02-09T21:08:48.379Z,13.23
2019-02-09T21:12:51.842Z,12.97
2019-02-09T21:16:55.303Z,10.57
2019-02-09T21:20:58.748Z,10.47
2019-02-09T21:25:02.202Z,14.10
2019-02-09T21:29:05.665Z,12.63
2019-02-09T21:33:09.120Z,16.40
2019-02-09T21:37:12.585Z,15.20
2019-02-09T21:41:16.044Z,13.77
2019-02-09T21:45:19.493Z,11.23
2019-02-09T21:49:22.952Z,14.50
2019-02-09T21:53:26.407Z,18.07
2019-02-09T21:57:29.868Z,12.20
2019-02-09T22:01:33.312Z,8.20
2019-02-09T22:05:36.770Z,15.63
2019-02-09T22:09:40.230Z,18.93
2019-02-09T22:13:43.692Z,13.10
2019-02-09T22:17:48.129Z,13.87
2019-02-09T22:21:51.846Z,12.77
2019-02-09T22:25:55.419Z,15.67
2019-02-09T22:29:58.939Z,12.57
2019-02-09T22:34:02.484Z,16.27
2019-02-09T22:38:05.959Z,11.97
2019-02-09T22:42:09.401Z,11.93
2019-02-09T22:46:12.855Z,14.70
2019-02-09T22:50:19.192Z,9.70
2019-02-09T22:54:21.481Z,11.43
2019-02-09T22:58:24.948Z,12.47
2019-02-09T23:02:28.395Z,13.60
2019-02-09T23:06:31.851Z,13.20
2019-02-09T23:10:35.307Z,11.93
2019-02-09T23:14:38.763Z,17.93
2019-02-09T23:18:42.207Z,20.90
2019-02-09T23:22:45.665Z,16.43
2019-02-09T23:26:49.125Z,23.33
2019-02-09T23:30:52.587Z,12.50
2019-02-09T23:34:56.041Z,17.73
2019-02-09T23:38:59.485Z,21.37
2019-02-09T23:43:03.309Z,17.00
2019-02-09T23:47:06.762Z,16.90
2019-02-09T23:51:10.220Z,12.77
2019-02-09T23:55:13.681Z,14.47
2019-02-09T23:59:17.125Z,15.03
